Time;durP1;ratioP1;P1;durP2;ratioP2;P2;SDS_P1;SDS_P2;PMS_P1;PMS_P2;Temp;Humidity;BMP_temperature;BMP_pressure;BME280_temperature;BME280_humidity;BME280_pressure;Samples;Min_cycle;Max_cycle;Signal;HPM_P1;HPM_P2
2023/08/06 00:00:31;;;;;;;2.35;1.83;;;17.60;99.90;;;;;;4162058;28;20583;-79
2023/08/06 00:02:32;;;;;;;3.05;1.80;;;17.60;99.90;;;;;;4177278;28;20116;-74
2023/08/06 00:04:32;;;;;;;2.63;2.03;;;17.70;99.90;;;;;;4176618;28;20033;-76
2023/08/06 00:06:33;;;;;;;3.55;2.33;;;17.60;99.90;;;;;;4153491;28;21645;-77
2023/08/06 00:08:34;;;;;;;5.00;2.40;;;17.60;99.90;;;;;;4168265;28;20116;-77
2023/08/06 00:10:34;;;;;;;3.00;2.00;;;17.60;99.90;;;;;;4172078;28;20527;-62
2023/08/06 00:12:35;;;;;;;2.80;1.85;;;17.60;99.90;;;;;;4177507;28;20028;-70
2023/08/06 00:14:35;;;;;;;2.65;2.05;;;17.70;99.90;;;;;;4171448;28;20481;-70
2023/08/06 00:16:36;;;;;;;3.80;2.40;;;17.70;99.90;;;;;;4170558;28;20029;-69
2023/08/06 00:18:37;;;;;;;3.33;2.35;;;17.70;99.90;;;;;;4163763;28;20045;-69
2023/08/06 00:20:41;;;;;;;2.55;2.17;;;17.80;99.90;;;;;;4168653;28;20045;-70
2023/08/06 00:22:41;;;;;;;3.33;2.38;;;17.80;99.90;;;;;;4169890;28;20043;-70
2023/08/06 00:24:42;;;;;;;3.55;2.20;;;17.80;99.90;;;;;;4167676;28;20033;-70
2023/08/06 00:26:43;;;;;;;2.30;1.85;;;17.80;99.90;;;;;;4158900;28;20045;-70
2023/08/06 00:28:43;;;;;;;3.10;2.25;;;17.80;99.90;;;;;;4168190;28;20029;-70
2023/08/06 00:30:44;;;;;;;3.33;2.30;;;17.80;99.90;;;;;;4162700;28;20088;-70
2023/08/06 00:32:44;;;;;;;2.55;1.98;;;17.90;99.90;;;;;;4160434;28;20040;-70
2023/08/06 00:34:45;;;;;;;4.45;2.72;;;17.90;99.90;;;;;;4164910;28;20021;-69
2023/08/06 00:36:46;;;;;;;3.95;2.45;;;17.90;99.90;;;;;;4167538;28;20041;-70
2023/08/06 00:38:46;;;;;;;3.15;2.20;;;18.00;99.90;;;;;;4163563;28;20040;-70
2023/08/06 00:40:47;;;;;;;2.90;2.60;;;18.00;99.90;;;;;;4163209;28;20477;-69
2023/08/06 00:42:48;;;;;;;4.32;2.22;;;17.90;99.90;;;;;;4170158;28;20118;-70
2023/08/06 00:44:48;;;;;;;3.63;2.50;;;17.90;99.90;;;;;;4165190;28;20033;-70
2023/08/06 00:46:49;;;;;;;3.17;2.50;;;18.00;99.90;;;;;;4155015;28;20505;-70
2023/08/06 00:48:50;;;;;;;2.65;2.13;;;17.90;99.90;;;;;;4161942;28;20037;-70
2023/08/06 00:50:51;;;;;;;3.05;2.38;;;18.00;99.90;;;;;;4165521;28;20049;-70
2023/08/06 00:52:53;;;;;;;3.58;2.45;;;17.90;99.90;;;;;;4161534;28;20060;-69
2023/08/06 00:54:53;;;;;;;4.25;2.78;;;17.90;99.90;;;;;;4155679;28;20041;-70
2023/08/06 00:56:55;;;;;;;4.35;2.33;;;17.90;99.90;;;;;;4149009;28;20486;-70
2023/08/06 00:58:55;;;;;;;4.57;2.38;;;17.90;99.90;;;;;;4144884;28;20499;-70
2023/08/06 01:00:56;;;;;;;2.90;2.00;;;17.90;99.90;;;;;;4149628;28;20033;-70
2023/08/06 01:02:57;;;;;;;5.10;2.05;;;17.90;99.90;;;;;;4159768;28;20026;-70
2023/08/06 01:04:57;;;;;;;2.80;2.47;;;17.90;99.90;;;;;;4153900;28;20457;-64
2023/08/06 01:07:13;;;;;;;3.75;2.25;;;18.00;99.90;;;;;;4155015;28;20057;-66
2023/08/06 01:09:30;;;;;;;3.45;2.30;;;18.00;99.90;;;;;;4154527;28;20187;-65
2023/08/06 01:11:52;;;;;;;7.38;3.00;;;18.00;99.90;;;;;;4151875;28;20044;-65
2023/08/06 01:14:02;;;;;;;3.28;2.17;;;18.00;99.90;;;;;;4145883;28;20071;-65
2023/08/06 01:16:05;;;;;;;3.83;2.05;;;18.00;99.90;;;;;;4145596;28;20030;-66
2023/08/06 01:18:06;;;;;;;3.97;2.22;;;18.00;99.90;;;;;;4153050;28;20444;-66
2023/08/06 01:20:07;;;;;;;2.92;2.13;;;18.00;99.90;;;;;;4159986;28;20034;-67
2023/08/06 01:22:07;;;;;;;4.70;2.10;;;18.00;99.90;;;;;;4154663;28;20037;-66
2023/08/06 01:24:08;;;;;;;3.63;2.47;;;18.00;99.90;;;;;;4157159;28;20512;-66
2023/08/06 01:26:09;;;;;;;4.60;2.30;;;18.10;99.90;;;;;;4149187;28;20124;-66
2023/08/06 01:28:49;;;;;;;2.10;1.90;;;18.00;99.90;;;;;;4152626;28;20080;-66
2023/08/06 01:30:52;;;;;;;3.25;1.95;;;18.10;99.90;;;;;;4143779;28;20042;-66
2023/08/06 01:33:02;;;;;;;2.55;1.80;;;18.10;99.90;;;;;;4156064;28;20103;-65
2023/08/06 01:35:04;;;;;;;2.63;2.10;;;18.10;99.90;;;;;;4142956;28;20108;-67
2023/08/06 01:37:05;;;;;;;2.55;2.10;;;18.20;99.90;;;;;;4150567;28;22090;-66
2023/08/06 01:39:05;;;;;;;4.47;2.22;;;18.10;99.90;;;;;;4145742;28;20046;-66
2023/08/06 01:41:06;;;;;;;6.10;2.75;;;18.10;99.90;;;;;;4156169;28;20052;-66
2023/08/06 01:43:07;;;;;;;2.67;1.85;;;18.10;99.90;;;;;;4156070;28;20030;-66
2023/08/06 01:45:08;;;;;;;3.35;2.35;;;18.10;99.90;;;;;;4149411;28;20119;-69
2023/08/06 01:47:09;;;;;;;2.45;1.98;;;18.10;99.90;;;;;;4167703;28;20059;-66
2023/08/06 01:49:09;;;;;;;7.95;2.28;;;18.10;99.90;;;;;;4169210;28;20037;-66
2023/08/06 01:51:10;;;;;;;2.30;2.00;;;18.10;99.90;;;;;;4175613;28;20060;-66
2023/08/06 01:53:11;;;;;;;2.20;1.90;;;18.10;99.90;;;;;;4172585;28;20037;-66
2023/08/06 01:55:11;;;;;;;2.88;2.03;;;18.10;99.90;;;;;;4164369;28;20037;-65
2023/08/06 01:57:12;;;;;;;2.65;2.15;;;18.10;99.90;;;;;;4163204;28;20049;-65
2023/08/06 01:59:12;;;;;;;3.22;2.20;;;18.10;99.90;;;;;;4163117;28;20063;-66
2023/08/06 02:01:13;;;;;;;2.92;2.05;;;18.10;99.90;;;;;;4169577;28;20040;-66
2023/08/06 02:03:13;;;;;;;3.15;2.00;;;18.10;99.90;;;;;;4179201;28;20033;-66
2023/08/06 02:05:14;;;;;;;4.40;2.25;;;18.20;99.90;;;;;;4177645;28;20119;-66
2023/08/06 02:07:15;;;;;;;4.35;2.38;;;18.20;99.90;;;;;;4171950;28;20430;-66
2023/08/06 02:09:15;;;;;;;2.70;2.13;;;18.20;99.90;;;;;;4163319;28;20079;-66
2023/08/06 02:11:16;;;;;;;2.80;1.95;;;18.10;99.90;;;;;;4174682;28;20504;-68
2023/08/06 02:13:16;;;;;;;3.28;2.25;;;18.20;99.90;;;;;;4179147;28;20133;-69
2023/08/06 02:15:17;;;;;;;3.38;2.00;;;18.20;99.90;;;;;;4168173;28;20068;-70
2023/08/06 02:17:17;;;;;;;3.00;2.20;;;18.20;99.90;;;;;;4172434;28;20036;-70
2023/08/06 02:19:18;;;;;;;3.67;2.25;;;18.10;99.90;;;;;;4163447;28;20041;-70
2023/08/06 02:21:19;;;;;;;3.65;2.20;;;18.10;99.90;;;;;;4161921;28;20443;-68
2023/08/06 02:23:19;;;;;;;2.38;1.88;;;18.10;99.90;;;;;;4162711;28;20033;-78
2023/08/06 02:25:20;;;;;;;2.78;2.10;;;18.10;99.90;;;;;;4169132;28;20033;-78
2023/08/06 02:27:20;;;;;;;3.05;2.50;;;18.10;99.90;;;;;;4166921;28;20033;-77
2023/08/06 02:29:21;;;;;;;2.97;2.35;;;18.10;99.90;;;;;;4165814;28;20059;-78
2023/08/06 02:31:22;;;;;;;3.08;2.28;;;18.00;99.90;;;;;;4166774;28;20041;-65
2023/08/06 02:33:22;;;;;;;3.15;2.40;;;18.00;99.90;;;;;;4179165;28;20090;-62
2023/08/06 02:35:23;;;;;;;2.50;2.00;;;18.00;99.90;;;;;;4177832;28;20112;-62
2023/08/06 02:37:24;;;;;;;2.50;2.10;;;18.00;99.90;;;;;;4172817;28;20029;-63
2023/08/06 02:39:25;;;;;;;9.30;1.80;;;18.00;99.90;;;;;;4175380;28;20460;-62
2023/08/06 02:41:26;;;;;;;2.35;1.88;;;17.90;99.90;;;;;;4172107;28;22385;-62
2023/08/06 02:43:26;;;;;;;1.95;1.65;;;18.00;99.90;;;;;;4162863;28;20044;-62
2023/08/06 02:45:27;;;;;;;2.70;1.80;;;17.90;99.90;;;;;;4164952;28;20057;-62
2023/08/06 02:47:27;;;;;;;3.65;1.95;;;18.00;99.90;;;;;;4162850;28;20029;-62
2023/08/06 02:49:28;;;;;;;4.00;1.92;;;17.90;99.90;;;;;;4172510;28;20060;-62
2023/08/06 02:51:28;;;;;;;4.20;2.05;;;17.90;99.90;;;;;;4167450;28;20049;-62
2023/08/06 02:53:29;;;;;;;2.75;2.17;;;17.90;99.90;;;;;;4178479;28;20508;-62
2023/08/06 02:55:30;;;;;;;2.47;1.70;;;17.90;99.90;;;;;;4170552;28;20167;-62
2023/08/06 02:57:30;;;;;;;1.80;1.63;;;17.90;99.90;;;;;;4172815;28;20037;-62
2023/08/06 02:59:31;;;;;;;5.82;1.77;;;17.90;99.90;;;;;;4165979;28;20033;-63
2023/08/06 03:01:33;;;;;;;2.55;1.70;;;17.90;99.90;;;;;;4167033;28;20037;-62
2023/08/06 03:03:34;;;;;;;3.93;2.10;;;17.90;99.90;;;;;;4177629;28;20405;-62
2023/08/06 03:05:35;;;;;;;1.70;1.40;;;17.90;99.90;;;;;;4170806;28;20351;-62
2023/08/06 03:07:37;;;;;;;2.40;1.70;;;17.90;99.90;;;;;;4170556;28;20102;-62
2023/08/06 03:09:37;;;;;;;2.92;2.25;;;17.80;99.90;;;;;;4177915;28;20485;-63
2023/08/06 03:11:38;;;;;;;2.30;1.70;;;17.80;99.90;;;;;;4163981;28;20036;-63
2023/08/06 03:13:39;;;;;;;2.17;1.65;;;17.90;99.90;;;;;;4163362;28;20045;-63
2023/08/06 03:15:39;;;;;;;3.03;1.90;;;17.80;99.90;;;;;;4169329;28;20043;-63
2023/08/06 03:17:40;;;;;;;3.17;1.98;;;17.90;99.90;;;;;;4166713;28;20090;-62
2023/08/06 03:19:40;;;;;;;2.40;1.77;;;17.80;99.90;;;;;;4178253;28;20036;-62
2023/08/06 03:21:41;;;;;;;2.05;1.70;;;17.80;99.90;;;;;;4164299;28;20128;-63
2023/08/06 03:23:42;;;;;;;1.95;1.65;;;17.90;99.90;;;;;;4165141;28;20087;-62
2023/08/06 03:25:43;;;;;;;1.73;1.55;;;17.90;99.90;;;;;;4171644;28;20072;-62
2023/08/06 03:27:43;;;;;;;2.05;1.70;;;17.90;99.90;;;;;;4163706;28;20029;-63
2023/08/06 03:29:44;;;;;;;2.47;1.70;;;17.90;99.90;;;;;;4163018;28;20079;-62
2023/08/06 03:31:45;;;;;;;2.42;1.77;;;17.90;99.90;;;;;;4169946;28;20044;-64
2023/08/06 03:33:45;;;;;;;1.83;1.65;;;18.00;99.90;;;;;;4161086;28;20103;-64
2023/08/06 03:35:46;;;;;;;3.47;1.73;;;18.00;99.90;;;;;;4163008;28;20043;-65
2023/08/06 03:37:46;;;;;;;2.55;1.80;;;17.90;99.90;;;;;;4164379;28;20530;-64
2023/08/06 03:39:47;;;;;;;1.80;1.60;;;18.00;99.90;;;;;;4177054;28;20131;-68
2023/08/06 03:41:47;;;;;;;2.63;1.83;;;18.00;99.90;;;;;;4174196;28;20045;-65
2023/08/06 03:43:48;;;;;;;1.83;1.50;;;18.00;99.90;;;;;;4171897;28;20045;-64
2023/08/06 03:45:49;;;;;;;2.22;1.58;;;18.00;99.90;;;;;;4171913;28;20068;-65
2023/08/06 03:47:49;;;;;;;2.22;1.70;;;18.00;99.90;;;;;;4163213;28;20401;-64
2023/08/06 03:49:50;;;;;;;1.75;1.50;;;18.00;99.90;;;;;;4177807;28;20055;-64
2023/08/06 03:51:50;;;;;;;2.38;1.70;;;18.00;99.90;;;;;;4168525;28;20041;-65
2023/08/06 03:53:51;;;;;;;2.63;1.48;;;18.00;99.90;;;;;;4161126;28;20030;-65
2023/08/06 03:55:52;;;;;;;1.90;1.73;;;18.00;99.90;;;;;;4161504;28;20045;-64
2023/08/06 03:57:52;;;;;;;2.67;1.77;;;18.00;99.90;;;;;;4168236;28;20072;-64
2023/08/06 03:59:53;;;;;;;1.92;1.42;;;18.10;99.90;;;;;;4171365;28;20033;-65
2023/08/06 04:01:53;;;;;;;2.40;1.50;;;18.00;99.90;;;;;;4167812;28;20044;-65
2023/08/06 04:03:54;;;;;;;2.08;1.65;;;18.00;99.90;;;;;;4167755;28;20049;-64
2023/08/06 04:05:55;;;;;;;3.45;1.88;;;18.00;99.90;;;;;;4175692;28;20428;-65
2023/08/06 04:07:55;;;;;;;1.73;1.50;;;18.00;99.90;;;;;;4162695;28;20079;-64
2023/08/06 04:10:02;;;;;;;1.83;1.55;;;18.00;99.90;;;;;;4160998;28;20517;-64
2023/08/06 04:12:04;;;;;;;1.80;1.58;;;18.00;99.90;;;;;;4164079;28;20850;-64
2023/08/06 04:14:05;;;;;;;1.50;1.40;;;18.00;99.90;;;;;;4150801;28;20030;-64
2023/08/06 04:16:06;;;;;;;2.75;1.40;;;18.00;99.90;;;;;;4171261;28;20029;-64
2023/08/06 04:18:06;;;;;;;2.78;1.88;;;18.00;99.90;;;;;;4170073;28;20155;-64
2023/08/06 04:20:07;;;;;;;3.97;1.92;;;18.00;99.90;;;;;;4157393;28;20490;-65
2023/08/06 04:22:08;;;;;;;1.90;1.60;;;18.00;99.90;;;;;;4159922;28;20034;-64
2023/08/06 04:24:09;;;;;;;1.90;1.42;;;18.00;99.90;;;;;;4165816;28;20048;-64
2023/08/06 04:26:09;;;;;;;1.95;1.75;;;18.00;99.90;;;;;;4172199;28;20033;-64
2023/08/06 04:28:10;;;;;;;2.33;1.60;;;18.00;99.90;;;;;;4161856;28;20029;-64
2023/08/06 04:30:12;;;;;;;2.00;1.70;;;18.00;99.90;;;;;;4144026;28;20034;-64
2023/08/06 04:32:13;;;;;;;3.10;1.30;;;18.00;99.90;;;;;;4175384;28;20133;-64
2023/08/06 04:34:13;;;;;;;1.50;1.25;;;18.00;99.90;;;;;;4167164;28;20064;-65
2023/08/06 04:36:14;;;;;;;2.75;1.85;;;18.00;99.90;;;;;;4172014;28;20033;-64
2023/08/06 04:38:14;;;;;;;1.60;1.50;;;18.00;99.90;;;;;;4161054;28;20026;-64
2023/08/06 04:40:15;;;;;;;3.17;1.92;;;18.00;99.90;;;;;;4158423;28;20055;-64
2023/08/06 04:42:16;;;;;;;2.40;1.38;;;18.10;99.90;;;;;;4158311;28;20398;-70
2023/08/06 04:44:16;;;;;;;2.22;1.50;;;18.00;99.90;;;;;;4168805;28;20037;-70
2023/08/06 04:46:17;;;;;;;2.45;1.55;;;18.00;99.90;;;;;;4159443;28;20045;-70
2023/08/06 04:48:17;;;;;;;1.65;1.40;;;18.00;99.90;;;;;;4143743;28;20516;-69
2023/08/06 04:50:19;;;;;;;1.65;1.40;;;18.00;99.90;;;;;;4147915;28;20041;-69
2023/08/06 04:52:20;;;;;;;1.77;1.30;;;18.00;99.90;;;;;;4159343;28;20034;-69
2023/08/06 04:54:21;;;;;;;1.40;1.30;;;18.00;99.90;;;;;;4135328;28;20386;-69
2023/08/06 04:56:21;;;;;;;2.97;1.35;;;18.00;99.90;;;;;;4149769;28;20080;-69
2023/08/06 04:58:22;;;;;;;3.17;1.65;;;18.00;99.90;;;;;;4148675;28;20033;-69
2023/08/06 05:00:22;;;;;;;1.55;1.38;;;17.90;99.90;;;;;;4154666;28;20348;-68
2023/08/06 05:02:23;;;;;;;1.58;1.20;;;18.00;99.90;;;;;;4160398;28;20075;-69
2023/08/06 05:04:24;;;;;;;1.80;1.40;;;18.00;99.90;;;;;;4147847;28;20038;-68
2023/08/06 05:06:24;;;;;;;2.50;1.33;;;18.00;99.90;;;;;;4145802;28;20497;-68
2023/08/06 05:08:25;;;;;;;3.35;1.70;;;18.00;99.90;;;;;;4151675;28;20030;-70
2023/08/06 05:10:26;;;;;;;1.65;1.30;;;18.00;99.90;;;;;;4154131;28;20308;-69
2023/08/06 05:12:27;;;;;;;1.40;1.30;;;18.00;99.90;;;;;;4152011;28;20042;-69
2023/08/06 05:14:28;;;;;;;1.92;1.50;;;18.00;99.90;;;;;;4154078;28;20720;-68
2023/08/06 05:16:28;;;;;;;3.47;1.80;;;18.00;99.90;;;;;;4150806;28;20083;-69
2023/08/06 05:18:30;;;;;;;1.63;1.52;;;18.10;99.90;;;;;;4155726;28;20032;-69
2023/08/06 05:20:31;;;;;;;3.25;1.67;;;18.10;99.90;;;;;;4147393;28;20120;-68
2023/08/06 05:22:31;;;;;;;3.10;1.48;;;18.10;99.90;;;;;;4161427;28;20449;-69
2023/08/06 05:24:32;;;;;;;3.60;1.92;;;18.10;99.90;;;;;;4166479;28;20022;-69
2023/08/06 05:26:32;;;;;;;2.20;1.80;;;18.10;99.90;;;;;;4160787;28;20486;-69
2023/08/06 05:28:34;;;;;;;2.60;1.77;;;18.10;99.90;;;;;;4156589;28;20036;-69
2023/08/06 05:30:38;;;;;;;2.10;1.73;;;18.10;99.90;;;;;;4163474;28;20033;-69
2023/08/06 05:32:39;;;;;;;2.13;1.60;;;18.10;99.90;;;;;;4162114;28;20033;-68
2023/08/06 05:34:41;;;;;;;2.30;1.88;;;18.20;99.90;;;;;;4159295;28;20040;-69
2023/08/06 05:36:41;;;;;;;2.95;2.00;;;18.10;99.90;;;;;;4157844;28;20041;-69
2023/08/06 05:38:42;;;;;;;2.30;1.73;;;18.20;99.90;;;;;;4163325;28;20479;-69
2023/08/06 05:40:43;;;;;;;1.45;1.27;;;18.20;99.90;;;;;;4163927;28;20034;-69
2023/08/06 05:42:43;;;;;;;2.83;2.00;;;18.20;99.90;;;;;;4166086;28;20029;-69
2023/08/06 05:44:44;;;;;;;2.53;2.00;;;18.20;99.90;;;;;;4168145;28;20036;-69
2023/08/06 05:46:45;;;;;;;2.45;2.03;;;18.20;99.90;;;;;;4166031;28;20493;-69
2023/08/06 05:48:45;;;;;;;2.90;1.90;;;18.20;99.90;;;;;;4162530;28;20030;-69
2023/08/06 05:50:46;;;;;;;3.58;1.95;;;18.20;99.90;;;;;;4167414;28;20064;-65
2023/08/06 05:52:47;;;;;;;2.88;2.00;;;18.20;99.90;;;;;;4169544;28;20167;-69
2023/08/06 05:54:47;;;;;;;2.38;2.00;;;18.20;99.90;;;;;;4170193;28;20124;-70
2023/08/06 05:56:48;;;;;;;3.85;1.98;;;18.30;99.90;;;;;;4170249;28;20099;-69
2023/08/06 05:58:51;;;;;;;3.03;1.90;;;18.20;99.90;;;;;;4169011;28;20046;-69
2023/08/06 06:00:52;;;;;;;3.17;1.88;;;18.20;99.90;;;;;;4167474;28;20069;-68
2023/08/06 06:02:52;;;;;;;3.10;1.88;;;18.30;99.90;;;;;;4171120;28;20045;-65
2023/08/06 06:04:53;;;;;;;2.60;1.90;;;18.20;99.90;;;;;;4171421;28;20112;-65
2023/08/06 06:06:53;;;;;;;2.45;1.85;;;18.30;99.90;;;;;;4165518;28;20400;-65
2023/08/06 06:08:54;;;;;;;1.77;1.50;;;18.30;99.90;;;;;;4164608;28;20025;-65
2023/08/06 06:10:54;;;;;;;4.00;1.67;;;18.30;99.90;;;;;;4173256;28;20428;-68
2023/08/06 06:12:55;;;;;;;2.45;1.75;;;18.40;99.90;;;;;;4177551;28;20409;-67
2023/08/06 06:14:56;;;;;;;3.95;2.05;;;18.40;99.90;;;;;;4176494;28;20040;-66
2023/08/06 06:16:56;;;;;;;3.67;1.50;;;18.40;99.90;;;;;;4169951;28;20073;-67
2023/08/06 06:18:57;;;;;;;2.50;1.80;;;18.40;99.90;;;;;;4166168;28;20033;-68
2023/08/06 06:20:58;;;;;;;2.60;1.75;;;18.50;99.90;;;;;;4173593;28;20079;-66
2023/08/06 06:22:59;;;;;;;2.65;1.90;;;18.40;99.90;;;;;;4176181;28;20046;-67
2023/08/06 06:24:59;;;;;;;2.17;1.58;;;18.40;99.90;;;;;;4164775;28;20029;-67
2023/08/06 06:27:00;;;;;;;1.77;1.65;;;18.40;99.90;;;;;;4168112;28;20171;-67
2023/08/06 06:29:01;;;;;;;1.88;1.60;;;18.50;99.90;;;;;;4166456;28;20040;-67
2023/08/06 06:31:02;;;;;;;3.65;1.90;;;18.50;99.90;;;;;;4166608;28;20033;-67
2023/08/06 06:33:02;;;;;;;2.13;1.77;;;18.50;99.90;;;;;;4166132;28;20030;-67
2023/08/06 06:35:03;;;;;;;2.97;1.85;;;18.50;99.90;;;;;;4166199;28;20037;-67
2023/08/06 06:37:04;;;;;;;2.53;1.80;;;18.60;99.90;;;;;;4166410;28;20175;-67
2023/08/06 06:39:05;;;;;;;1.98;1.77;;;18.60;99.90;;;;;;4164273;28;20047;-67
2023/08/06 06:41:05;;;;;;;2.58;1.98;;;18.60;99.90;;;;;;4163480;28;20034;-67
2023/08/06 06:43:06;;;;;;;2.55;1.52;;;18.70;99.90;;;;;;4163444;28;20026;-67
2023/08/06 06:45:07;;;;;;;2.38;1.73;;;18.70;99.90;;;;;;4160566;28;20041;-68
2023/08/06 06:47:08;;;;;;;2.45;1.90;;;18.80;99.90;;;;;;4163965;28;20037;-67
2023/08/06 06:49:08;;;;;;;3.40;2.40;;;18.90;99.90;;;;;;4164925;28;20161;-68
2023/08/06 06:51:09;;;;;;;3.92;1.90;;;19.10;99.90;;;;;;4164297;28;20037;-68
2023/08/06 06:53:10;;;;;;;2.45;1.70;;;19.30;99.90;;;;;;4163166;28;20040;-68
2023/08/06 06:55:10;;;;;;;2.83;1.70;;;19.50;99.90;;;;;;4161583;28;20627;-68
2023/08/06 06:57:11;;;;;;;2.15;1.70;;;19.70;99.90;;;;;;4160591;28;20436;-68
2023/08/06 06:59:11;;;;;;;2.88;1.70;;;20.00;99.90;;;;;;4164712;28;20033;-68
2023/08/06 07:01:12;;;;;;;2.70;1.65;;;20.10;99.90;;;;;;4163284;28;20397;-68
2023/08/06 07:03:13;;;;;;;2.28;1.80;;;20.20;99.90;;;;;;4168905;28;20030;-67
2023/08/06 07:05:13;;;;;;;2.92;1.80;;;20.30;99.90;;;;;;4166663;28;20121;-68
2023/08/06 07:07:14;;;;;;;2.53;1.50;;;20.40;99.90;;;;;;4147703;28;20486;-68
2023/08/06 07:09:14;;;;;;;2.13;1.42;;;20.40;99.90;;;;;;4164104;28;20025;-68
2023/08/06 07:11:15;;;;;;;3.22;1.88;;;20.50;99.90;;;;;;4148820;28;20069;-66
2023/08/06 07:13:16;;;;;;;2.13;1.60;;;20.60;99.90;;;;;;4169481;28;20052;-68
2023/08/06 07:15:17;;;;;;;2.75;1.52;;;20.70;99.90;;;;;;4164598;28;20381;-68
2023/08/06 07:17:18;;;;;;;2.80;1.70;;;20.80;99.90;;;;;;4165912;28;20033;-68
2023/08/06 07:19:18;;;;;;;4.03;1.90;;;20.80;99.90;;;;;;4164227;28;20087;-68
2023/08/06 07:21:19;;;;;;;1.60;1.50;;;20.80;99.90;;;;;;4163648;28;20036;-66
2023/08/06 07:23:25;;;;;;;2.38;1.38;;;20.90;99.90;;;;;;4160648;28;20033;-67
2023/08/06 07:25:26;;;;;;;2.42;1.35;;;20.90;99.90;;;;;;4163065;28;20048;-68
2023/08/06 07:27:27;;;;;;;3.03;1.52;;;21.00;99.90;;;;;;4152490;28;20045;-68
2023/08/06 07:29:27;;;;;;;2.50;1.17;;;21.00;99.90;;;;;;4169492;28;20064;-68
2023/08/06 07:31:28;;;;;;;1.38;0.98;;;21.00;99.90;;;;;;4166274;28;20037;-67
2023/08/06 07:33:29;;;;;;;3.78;1.10;;;21.00;99.90;;;;;;4161116;28;20033;-67
2023/08/06 07:35:29;;;;;;;1.15;0.93;;;21.10;99.90;;;;;;4169668;28;20103;-68
2023/08/06 07:37:30;;;;;;;1.42;1.25;;;21.10;99.90;;;;;;4148737;28;20514;-67
2023/08/06 07:39:31;;;;;;;2.17;1.17;;;21.10;99.90;;;;;;4161354;28;20041;-68
2023/08/06 07:41:31;;;;;;;2.30;1.30;;;21.10;99.90;;;;;;4171614;28;20430;-68
2023/08/06 07:43:32;;;;;;;3.15;1.23;;;21.10;99.90;;;;;;4175687;28;20426;-67
2023/08/06 07:45:37;;;;;;;1.60;0.82;;;21.10;99.90;;;;;;4173625;28;20094;-68
2023/08/06 07:47:37;;;;;;;2.38;1.15;;;21.10;99.90;;;;;;4164834;28;20144;-67
2023/08/06 07:49:39;;;;;;;2.83;0.97;;;21.00;99.90;;;;;;4166489;28;20065;-67
2023/08/06 07:51:40;;;;;;;3.88;1.20;;;20.90;99.90;;;;;;4166805;28;20045;-69
2023/08/06 07:53:40;;;;;;;1.98;1.20;;;20.90;99.90;;;;;;4163078;28;20504;-67
2023/08/06 07:55:41;;;;;;;2.90;0.93;;;20.90;99.90;;;;;;4149696;28;20044;-67
2023/08/06 07:57:41;;;;;;;1.73;1.27;;;20.90;99.90;;;;;;4166648;28;20030;-68
2023/08/06 07:59:42;;;;;;;2.15;1.10;;;20.80;99.90;;;;;;4161832;28;20085;-68
2023/08/06 08:01:43;;;;;;;3.75;1.27;;;20.80;99.90;;;;;;4162459;28;20430;-68
2023/08/06 08:03:43;;;;;;;1.98;1.02;;;20.80;99.90;;;;;;4165809;28;20029;-68
2023/08/06 08:05:44;;;;;;;1.95;1.10;;;20.80;99.90;;;;;;4162185;28;20429;-67
2023/08/06 08:07:45;;;;;;;1.42;1.10;;;20.90;99.90;;;;;;4163997;28;20038;-68
2023/08/06 08:09:45;;;;;;;2.60;1.38;;;20.90;99.90;;;;;;4163855;28;20116;-67
2023/08/06 08:11:47;;;;;;;2.13;1.10;;;20.80;99.90;;;;;;4165918;28;20037;-68
2023/08/06 08:13:47;;;;;;;1.10;0.80;;;20.80;99.90;;;;;;4164085;28;20045;-67
2023/08/06 08:15:48;;;;;;;1.85;0.98;;;20.80;99.90;;;;;;4161747;28;20071;-67
2023/08/06 08:17:49;;;;;;;2.35;1.08;;;20.80;99.90;;;;;;4163184;28;20486;-68
2023/08/06 08:19:49;;;;;;;2.25;1.27;;;20.90;99.90;;;;;;4165615;28;20389;-67
2023/08/06 08:21:50;;;;;;;3.22;1.15;;;21.00;99.90;;;;;;4166455;28;20470;-67
2023/08/06 08:23:52;;;;;;;3.28;1.40;;;21.00;99.90;;;;;;4165486;28;20041;-66
2023/08/06 08:25:52;;;;;;;2.67;1.17;;;21.00;99.90;;;;;;4164358;28;20105;-67
2023/08/06 08:27:54;;;;;;;2.70;1.10;;;21.00;99.90;;;;;;4162987;28;20080;-67
2023/08/06 08:29:55;;;;;;;2.28;1.00;;;21.00;99.90;;;;;;4176748;28;20037;-67
2023/08/06 08:31:55;;;;;;;3.47;1.00;;;21.00;99.90;;;;;;4173078;28;20501;-66
2023/08/06 08:33:56;;;;;;;2.38;0.80;;;21.00;99.90;;;;;;4162225;28;20033;-66
2023/08/06 08:35:56;;;;;;;5.80;1.35;;;21.00;99.90;;;;;;4168842;28;20096;-66
2023/08/06 08:37:57;;;;;;;4.82;1.27;;;21.00;99.90;;;;;;4163832;28;20133;-66
2023/08/06 08:39:58;;;;;;;3.42;1.05;;;21.00;99.90;;;;;;4171342;28;20040;-66
2023/08/06 08:41:59;;;;;;;2.65;1.10;;;21.00;99.90;;;;;;4171916;28;20120;-66
2023/08/06 08:44:02;;;;;;;3.30;0.93;;;20.90;99.90;;;;;;4164657;28;20037;-66
2023/08/06 08:46:05;;;;;;;2.05;0.82;;;21.00;99.90;;;;;;4170394;28;20061;-66
2023/08/06 08:48:06;;;;;;;2.38;1.23;;;21.00;99.90;;;;;;4161984;28;20040;-66
2023/08/06 08:50:09;;;;;;;3.80;1.23;;;20.90;99.90;;;;;;4161044;28;20079;-66
2023/08/06 08:52:12;;;;;;;2.45;0.80;;;20.90;99.90;;;;;;4162368;28;20049;-66
2023/08/06 08:54:15;;;;;;;1.58;0.90;;;20.90;99.90;;;;;;4165778;28;20108;-66
2023/08/06 08:56:15;;;;;;;;;;;20.90;99.90;;;;;;4161881;28;20048;-66
2023/08/06 08:58:16;;;;;;;2.42;0.82;;;20.90;99.90;;;;;;4167629;28;19909;-66
2023/08/06 09:00:17;;;;;;;3.47;1.25;;;21.00;99.90;;;;;;4166690;28;20123;-66
2023/08/06 09:02:21;;;;;;;2.95;1.30;;;21.00;99.90;;;;;;4166787;28;20120;-66
2023/08/06 09:04:23;;;;;;;1.98;1.23;;;21.00;99.90;;;;;;4166187;28;20037;-66
2023/08/06 09:06:27;;;;;;;7.22;1.98;;;21.10;99.90;;;;;;4164291;28;20038;-66
2023/08/06 09:08:34;;;;;;;2.83;1.60;;;21.00;99.90;;;;;;4163185;28;20056;-66
2023/08/06 09:10:36;;;;;;;1.80;1.15;;;20.90;99.90;;;;;;4168767;28;20424;-66
2023/08/06 09:12:37;;;;;;;3.15;1.15;;;20.90;99.90;;;;;;4170374;28;20103;-66
2023/08/06 09:14:38;;;;;;;2.30;1.48;;;20.90;99.90;;;;;;4167869;28;20209;-66
2023/08/06 09:16:38;;;;;;;4.10;1.90;;;20.90;99.90;;;;;;4167278;28;20056;-66
2023/08/06 09:18:40;;;;;;;4.13;1.75;;;20.90;99.90;;;;;;4171856;28;20021;-66
2023/08/06 09:20:40;;;;;;;3.65;1.75;;;20.80;99.90;;;;;;4168519;28;20126;-66
2023/08/06 09:22:41;;;;;;;4.85;1.67;;;20.70;99.90;;;;;;4171615;28;20394;-68
2023/08/06 09:24:42;;;;;;;2.85;1.70;;;20.70;99.90;;;;;;4166565;28;20029;-67
2023/08/06 09:26:46;;;;;;;2.17;1.63;;;20.60;99.90;;;;;;4167378;28;20033;-66
2023/08/06 09:28:46;;;;;;;2.90;1.67;;;20.60;99.90;;;;;;4155850;28;20590;-66
2023/08/06 09:30:48;;;;;;;1.90;1.55;;;20.60;99.90;;;;;;4158935;28;20083;-65
2023/08/06 09:32:52;;;;;;;3.92;2.05;;;20.50;99.90;;;;;;4157873;28;20110;-66
2023/08/06 09:34:56;;;;;;;5.07;1.73;;;20.50;99.90;;;;;;4157881;28;20037;-66
2023/08/06 09:36:57;;;;;;;2.90;1.63;;;20.50;99.90;;;;;;4159768;28;20394;-66
2023/08/06 09:38:58;;;;;;;2.92;1.60;;;20.50;99.90;;;;;;4159085;28;20107;-65
2023/08/06 09:40:58;;;;;;;5.72;1.40;;;20.50;99.90;;;;;;4152689;28;20030;-66
2023/08/06 09:43:00;;;;;;;4.13;2.05;;;20.50;99.90;;;;;;4154743;28;20028;-67
2023/08/06 09:45:06;;;;;;;3.33;1.58;;;20.40;99.90;;;;;;4151973;28;20077;-67
2023/08/06 09:47:07;;;;;;;4.10;1.73;;;20.40;99.90;;;;;;4156550;28;20038;-67
2023/08/06 09:49:09;;;;;;;2.95;1.60;;;20.40;99.90;;;;;;4151657;28;20153;-67
2023/08/06 09:51:12;;;;;;;3.10;1.90;;;20.40;99.90;;;;;;4150352;28;20041;-66
2023/08/06 09:53:13;;;;;;;3.13;1.38;;;20.40;99.90;;;;;;4164477;28;20025;-67
2023/08/06 09:55:14;;;;;;;2.40;1.42;;;20.40;99.90;;;;;;4149697;28;20044;-66
2023/08/06 09:57:15;;;;;;;3.53;1.90;;;20.40;99.90;;;;;;4158738;28;20083;-67
2023/08/06 09:59:17;;;;;;;4.30;2.25;;;20.30;99.90;;;;;;4165475;28;20033;-67
2023/08/06 10:01:18;;;;;;;4.32;1.55;;;20.20;99.90;;;;;;4174362;28;20493;-67
2023/08/06 10:03:20;;;;;;;6.22;1.95;;;20.10;99.90;;;;;;4172310;28;20056;-67
2023/08/06 10:05:24;;;;;;;4.75;1.90;;;20.00;99.90;;;;;;4168353;28;20025;-67
2023/08/06 10:07:25;;;;;;;3.78;2.00;;;20.00;99.90;;;;;;4162931;28;20048;-67
2023/08/06 10:09:26;;;;;;;4.47;2.25;;;19.90;99.90;;;;;;4154011;28;20113;-67
2023/08/06 10:11:28;;;;;;;4.28;2.30;;;19.70;99.90;;;;;;4150472;28;20052;-67
2023/08/06 10:13:30;;;;;;;3.67;1.90;;;19.60;99.90;;;;;;4155418;28;20056;-67
2023/08/06 10:15:32;;;;;;;5.38;2.00;;;19.50;99.90;;;;;;4160492;28;20068;-68
2023/08/06 10:17:34;;;;;;;3.38;2.22;;;19.40;99.90;;;;;;4166436;28;20036;-68
2023/08/06 10:19:35;;;;;;;4.05;2.55;;;19.30;99.90;;;;;;4163577;28;20049;-67
2023/08/06 10:21:37;;;;;;;3.25;1.60;;;19.20;99.90;;;;;;4159470;28;20030;-67
2023/08/06 10:23:40;;;;;;;2.08;1.42;;;18.90;99.90;;;;;;4155309;28;20036;-67
2023/08/06 10:25:42;;;;;;;2.90;1.27;;;18.60;99.90;;;;;;4173369;28;20589;-67
2023/08/06 10:27:48;;;;;;;1.33;0.85;;;18.40;99.90;;;;;;4162693;28;20053;-67
2023/08/06 10:29:50;;;;;;;2.60;0.88;;;18.10;99.90;;;;;;4157557;28;20060;-67
2023/08/06 10:32:00;;;;;;;1.25;0.90;;;17.90;99.90;;;;;;4163602;28;20037;-67